Time;durP1;ratioP1;P1;durP2;ratioP2;P2;SDS_P1;SDS_P2;PMS_P1;PMS_P2;Temp;Humidity;BMP_temperature;BMP_pressure;BME280_temperature;BME280_humidity;BME280_pressure;Samples;Min_cycle;Max_cycle;Signal;HPM_P1;HPM_P2
2022/01/11 00:02:04;;;;;;;4.50;3.40;;;7.00;99.90;;;;;;5027572;28;20127;-76
2022/01/11 00:04:30;;;;;;;4.40;3.53;;;7.00;99.90;;;;;;5027675;28;20434;-76
2022/01/11 00:06:57;;;;;;;6.40;3.85;;;6.90;99.90;;;;;;5027825;28;20041;-76
2022/01/11 00:09:33;;;;;;;5.93;3.70;;;6.90;99.90;;;;;;5029523;28;20024;-76
2022/01/11 00:11:59;;;;;;;5.10;3.42;;;6.90;99.90;;;;;;5028617;28;20030;-76
2022/01/11 00:14:25;;;;;;;5.70;3.60;;;6.90;99.90;;;;;;5025777;28;20438;-76
2022/01/11 00:16:50;;;;;;;4.57;3.33;;;6.90;99.90;;;;;;5027641;28;20037;-76
2022/01/11 00:19:16;;;;;;;5.63;4.13;;;6.90;99.90;;;;;;5026438;28;20051;-76
2022/01/11 00:21:48;;;;;;;5.47;3.78;;;7.00;99.90;;;;;;5028034;28;20545;-76
2022/01/11 00:24:33;;;;;;;6.18;3.83;;;7.00;99.90;;;;;;5028207;28;20026;-76
2022/01/11 00:27:02;;;;;;;6.30;3.92;;;6.90;99.90;;;;;;5027262;28;20402;-76
2022/01/11 00:29:29;;;;;;;6.32;4.03;;;6.80;99.90;;;;;;5031276;28;20152;-76
2022/01/11 00:31:59;;;;;;;5.78;3.33;;;6.90;99.90;;;;;;5031196;28;20498;-76
2022/01/11 00:34:27;;;;;;;4.32;3.55;;;6.90;99.90;;;;;;5030992;28;20426;-75
2022/01/11 00:36:53;;;;;;;4.80;3.67;;;6.80;99.90;;;;;;5031161;28;20035;-75
2022/01/11 00:39:18;;;;;;;5.07;4.05;;;6.80;99.90;;;;;;5032371;28;20135;-76
2022/01/11 00:41:44;;;;;;;4.30;3.63;;;6.80;99.90;;;;;;5029775;28;20088;-76
2022/01/11 00:44:11;;;;;;;4.25;3.30;;;6.80;99.90;;;;;;5030649;28;20025;-76
2022/01/11 00:46:40;;;;;;;5.78;3.58;;;6.80;99.90;;;;;;5031127;28;20017;-76
2022/01/11 00:49:06;;;;;;;5.53;3.53;;;6.70;99.90;;;;;;5029380;28;20562;-76
2022/01/11 00:51:32;;;;;;;5.72;3.20;;;6.80;99.90;;;;;;5031512;28;20013;-76
2022/01/11 00:53:58;;;;;;;4.32;3.40;;;6.80;99.90;;;;;;5031835;28;20025;-76
2022/01/11 00:56:24;;;;;;;5.88;3.65;;;6.80;99.90;;;;;;5030929;28;20029;-76
2022/01/11 00:58:49;;;;;;;4.90;4.05;;;6.70;99.90;;;;;;5029806;28;20579;-76
2022/01/11 01:01:15;;;;;;;5.80;3.63;;;6.70;99.90;;;;;;5030909;28;20025;-76
2022/01/11 01:03:41;;;;;;;7.15;3.70;;;6.70;99.90;;;;;;5029692;28;20029;-76
2022/01/11 01:06:07;;;;;;;6.45;4.43;;;6.70;99.90;;;;;;5031487;28;20019;-76
2022/01/11 01:08:32;;;;;;;6.47;4.30;;;6.50;99.90;;;;;;5030601;28;20026;-76
2022/01/11 01:10:58;;;;;;;5.30;3.83;;;6.50;99.90;;;;;;5030469;28;20069;-76
2022/01/11 01:13:26;;;;;;;5.50;3.63;;;6.40;99.90;;;;;;5029203;28;20075;-76
2022/01/11 01:15:54;;;;;;;5.43;3.85;;;6.50;99.90;;;;;;5018435;28;20056;-76
2022/01/11 01:18:25;;;;;;;7.07;4.25;;;6.50;99.90;;;;;;5032134;28;20078;-76
2022/01/11 01:20:52;;;;;;;7.78;4.07;;;6.40;99.90;;;;;;5028477;28;20053;-76
2022/01/11 01:23:19;;;;;;;5.25;3.75;;;6.30;99.90;;;;;;5029841;28;20498;-76
2022/01/11 01:25:46;;;;;;;5.05;3.70;;;6.30;99.90;;;;;;5030033;28;20030;-76
2022/01/11 01:28:13;;;;;;;6.18;4.47;;;6.20;99.90;;;;;;5028329;28;20060;-76
2022/01/11 01:30:39;;;;;;;5.22;3.85;;;6.20;99.90;;;;;;5029008;28;20396;-76
2022/01/11 01:33:05;;;;;;;5.38;3.75;;;6.20;99.90;;;;;;5031147;28;20029;-76
2022/01/11 01:35:39;;;;;;;5.22;3.80;;;6.20;99.90;;;;;;5029900;28;20026;-76
2022/01/11 01:38:05;;;;;;;5.78;4.53;;;6.10;99.90;;;;;;5028821;28;20029;-76
2022/01/11 01:40:39;;;;;;;5.10;3.75;;;6.10;99.90;;;;;;5027556;28;20080;-76
2022/01/11 01:43:08;;;;;;;4.57;3.40;;;6.10;99.90;;;;;;5030092;28;20034;-76
2022/01/11 01:45:34;;;;;;;4.30;3.30;;;6.10;99.90;;;;;;5030384;28;20033;-76
2022/01/11 01:48:02;;;;;;;5.63;4.18;;;6.10;99.90;;;;;;5030494;28;20053;-75
2022/01/11 01:50:28;;;;;;;5.57;3.95;;;5.90;99.90;;;;;;5029484;28;20186;-75
2022/01/11 01:52:57;;;;;;;5.32;3.75;;;5.90;99.90;;;;;;5029488;28;20506;-76
2022/01/11 01:55:24;;;;;;;5.22;3.50;;;5.80;99.90;;;;;;5028998;28;20018;-76
2022/01/11 01:57:50;;;;;;;5.20;3.85;;;5.90;99.90;;;;;;5029578;28;20037;-76
2022/01/11 02:00:18;;;;;;;4.47;3.28;;;5.90;99.90;;;;;;5029836;28;20123;-76
2022/01/11 02:02:44;;;;;;;6.32;4.85;;;5.80;99.90;;;;;;5025917;28;20116;-76
2022/01/11 02:05:10;;;;;;;7.25;4.65;;;5.90;99.90;;;;;;5028964;28;20029;-76
2022/01/11 02:07:36;;;;;;;9.10;5.28;;;6.10;99.90;;;;;;5028626;28;20426;-76
2022/01/11 02:10:05;;;;;;;7.10;4.63;;;6.10;99.90;;;;;;5029493;28;20096;-76
2022/01/11 02:12:31;;;;;;;7.82;4.88;;;6.10;99.90;;;;;;5030752;28;20106;-76
2022/01/11 02:14:56;;;;;;;7.35;4.95;;;6.10;99.90;;;;;;5029865;28;20072;-76
2022/01/11 02:17:26;;;;;;;9.50;5.35;;;6.20;99.90;;;;;;5028779;28;20509;-76
2022/01/11 02:19:55;;;;;;;8.55;5.28;;;6.20;99.90;;;;;;5026537;28;20621;-76
2022/01/11 02:22:20;;;;;;;7.90;4.90;;;6.20;99.90;;;;;;5028310;28;20021;-76
2022/01/11 02:24:46;;;;;;;6.05;4.60;;;6.30;99.90;;;;;;5028764;28;20037;-78
2022/01/11 02:27:12;;;;;;;7.63;5.55;;;6.30;99.90;;;;;;5030992;28;20553;-78
2022/01/11 02:29:39;;;;;;;5.10;4.18;;;6.30;99.90;;;;;;5028874;28;20491;-76
2022/01/11 02:32:05;;;;;;;7.65;4.70;;;6.30;99.90;;;;;;5029021;28;20108;-78
2022/01/11 02:34:31;;;;;;;6.35;4.78;;;6.30;99.90;;;;;;5027920;28;20029;-76
2022/01/11 02:36:57;;;;;;;6.80;5.13;;;6.30;99.90;;;;;;5028565;28;20040;-76
2022/01/11 02:39:23;;;;;;;10.35;5.30;;;6.20;99.90;;;;;;5029108;28;20053;-76
2022/01/11 02:41:54;;;;;;;7.50;4.80;;;6.30;99.90;;;;;;5028958;28;20517;-76
2022/01/11 02:44:20;;;;;;;7.47;4.90;;;6.40;99.90;;;;;;5027442;28;20107;-76
2022/01/11 02:46:46;;;;;;;9.60;5.78;;;6.40;99.90;;;;;;5028627;28;20057;-76
2022/01/11 02:49:12;;;;;;;7.13;5.65;;;6.30;99.90;;;;;;5028726;28;20060;-78
2022/01/11 02:51:37;;;;;;;9.18;5.93;;;6.30;99.90;;;;;;5028762;28;20030;-78
2022/01/11 02:54:05;;;;;;;9.52;6.07;;;6.30;99.90;;;;;;5030171;28;20029;-76
2022/01/11 02:56:31;;;;;;;9.25;6.13;;;6.30;99.90;;;;;;5028670;28;20022;-76
2022/01/11 02:58:58;;;;;;;10.75;5.85;;;6.30;99.90;;;;;;5027850;28;20052;-77
2022/01/11 03:01:24;;;;;;;8.43;5.68;;;6.30;99.90;;;;;;5028480;28;20025;-76
2022/01/11 03:03:51;;;;;;;7.88;5.90;;;6.40;99.90;;;;;;5028388;28;20034;-76
2022/01/11 03:06:17;;;;;;;9.10;5.78;;;6.40;99.90;;;;;;5029410;28;20029;-78
2022/01/11 03:08:46;;;;;;;8.75;5.68;;;6.40;99.90;;;;;;5027740;28;20490;-78
2022/01/11 03:11:13;;;;;;;9.50;6.20;;;6.40;99.90;;;;;;5028397;28;20021;-78
2022/01/11 03:13:41;;;;;;;9.80;6.07;;;6.30;99.90;;;;;;5027240;28;20033;-76
2022/01/11 03:16:10;;;;;;;8.52;6.03;;;6.30;99.90;;;;;;5027552;28;20513;-77
2022/01/11 03:18:36;;;;;;;7.72;4.97;;;6.30;99.90;;;;;;5026859;28;20082;-78
2022/01/11 03:21:03;;;;;;;10.23;5.38;;;6.40;99.90;;;;;;5029002;28;20562;-78
2022/01/11 03:23:29;;;;;;;8.52;5.63;;;6.40;99.90;;;;;;5028097;28;20104;-78
2022/01/11 03:25:55;;;;;;;10.60;5.20;;;6.50;99.90;;;;;;5027010;28;20048;-76
2022/01/11 03:28:22;;;;;;;11.85;5.80;;;6.50;99.90;;;;;;5028607;28;20594;-76
2022/01/11 03:30:50;;;;;;;8.10;5.57;;;6.30;99.90;;;;;;5028143;28;20029;-76
2022/01/11 03:33:16;;;;;;;5.72;4.65;;;6.30;99.90;;;;;;5029504;28;20025;-76
2022/01/11 03:35:42;;;;;;;7.13;4.95;;;6.30;99.90;;;;;;5026121;28;20035;-76
2022/01/11 03:38:11;;;;;;;6.35;4.18;;;6.30;99.90;;;;;;5027739;28;20017;-76
2022/01/11 03:40:37;;;;;;;6.50;4.60;;;6.40;99.90;;;;;;5027902;28;20054;-79
2022/01/11 03:43:04;;;;;;;6.65;4.45;;;6.40;99.90;;;;;;5026703;28;20021;-79
2022/01/11 03:45:31;;;;;;;6.22;4.38;;;6.30;99.90;;;;;;5029011;28;20028;-76
2022/01/11 03:47:59;;;;;;;7.28;4.60;;;6.40;99.90;;;;;;5027586;28;20482;-76
2022/01/11 03:50:25;;;;;;;6.55;4.45;;;6.40;99.90;;;;;;5027877;28;20030;-76
2022/01/11 03:58:17;;;;;;;6.05;4.80;;;6.40;99.90;;;;;;5014671;28;20061;-76
2022/01/11 04:00:43;;;;;;;6.53;4.38;;;6.40;99.90;;;;;;5027719;28;20079;-76
2022/01/11 04:03:10;;;;;;;6.47;4.35;;;6.40;99.90;;;;;;5031513;28;20483;-76
2022/01/11 04:05:36;;;;;;;6.18;4.65;;;6.50;99.90;;;;;;5031289;28;20041;-76
2022/01/11 04:08:03;;;;;;;9.15;4.95;;;6.40;99.90;;;;;;5032061;28;20508;-76
2022/01/11 04:10:28;;;;;;;7.45;4.68;;;6.50;99.90;;;;;;5030557;28;20057;-76
2022/01/11 04:12:54;;;;;;;5.28;3.88;;;6.60;99.90;;;;;;5031792;28;20052;-76
2022/01/11 04:15:20;;;;;;;8.73;4.75;;;6.60;99.90;;;;;;5032991;28;20065;-76
2022/01/11 04:17:46;;;;;;;7.70;4.15;;;6.60;99.90;;;;;;5030243;28;20033;-77
2022/01/11 04:20:14;;;;;;;8.93;4.47;;;6.70;99.90;;;;;;5029560;28;20052;-76
2022/01/11 04:22:40;;;;;;;5.65;3.35;;;6.60;99.90;;;;;;5031025;28;20029;-76
2022/01/11 04:25:06;;;;;;;7.20;4.68;;;6.60;99.90;;;;;;5031003;28;20037;-76
2022/01/11 04:27:31;;;;;;;7.10;4.57;;;6.50;99.90;;;;;;5030205;28;20071;-76
2022/01/11 04:29:57;;;;;;;6.55;4.53;;;6.50;99.90;;;;;;5031634;28;20101;-77
2022/01/11 04:32:23;;;;;;;8.25;4.93;;;6.50;99.90;;;;;;5031245;28;20449;-76
2022/01/11 04:34:48;;;;;;;8.73;4.50;;;6.60;99.90;;;;;;5029649;28;20582;-76
2022/01/11 04:37:14;;;;;;;6.55;4.20;;;6.60;99.90;;;;;;5031463;28;20260;-76
2022/01/11 04:39:40;;;;;;;5.88;3.90;;;6.60;99.90;;;;;;5029643;28;20061;-77
2022/01/11 04:42:06;;;;;;;7.45;4.25;;;6.60;99.90;;;;;;5032333;28;20029;-77
2022/01/11 04:44:32;;;;;;;8.07;4.45;;;6.60;99.90;;;;;;5030840;28;20568;-76
2022/01/11 04:46:58;;;;;;;8.90;4.85;;;6.50;99.90;;;;;;5030919;28;20017;-76
2022/01/11 04:49:23;;;;;;;8.05;4.47;;;6.50;99.90;;;;;;5029014;28;20525;-76
2022/01/11 04:51:49;;;;;;;8.60;4.90;;;6.50;99.90;;;;;;5031212;28;31593;-77
2022/01/11 04:54:15;;;;;;;8.50;4.53;;;6.60;99.90;;;;;;5020547;28;20045;-76
2022/01/11 04:56:40;;;;;;;8.48;4.68;;;6.60;99.90;;;;;;5030911;28;20494;-76
2022/01/11 04:59:06;;;;;;;7.45;4.57;;;6.70;99.90;;;;;;5029267;28;20561;-76
2022/01/11 05:01:32;;;;;;;6.88;4.20;;;6.70;99.90;;;;;;5030695;28;20025;-76
2022/01/11 05:03:58;;;;;;;7.72;4.65;;;6.80;99.90;;;;;;5024072;28;20026;-76
2022/01/11 05:06:24;;;;;;;7.05;4.45;;;6.80;99.90;;;;;;5032118;28;20521;-76
2022/01/11 05:08:50;;;;;;;7.05;4.05;;;6.80;99.90;;;;;;5030734;28;20087;-76
2022/01/11 05:11:16;;;;;;;7.15;4.00;;;6.80;99.90;;;;;;5030789;28;20561;-76
2022/01/11 05:13:42;;;;;;;6.68;4.28;;;6.80;99.90;;;;;;5029114;28;20119;-76
2022/01/11 05:16:09;;;;;;;8.25;4.30;;;6.80;99.90;;;;;;5029581;28;20502;-76
2022/01/11 05:18:36;;;;;;;7.93;4.50;;;6.80;99.90;;;;;;5031011;28;20029;-76
2022/01/11 05:21:03;;;;;;;8.15;4.65;;;6.80;99.90;;;;;;5031745;28;20033;-77
2022/01/11 05:23:29;;;;;;;7.32;4.68;;;6.90;99.90;;;;;;5030070;28;20522;-76
2022/01/11 05:25:55;;;;;;;9.10;4.43;;;6.90;99.90;;;;;;5029124;28;20025;-76
2022/01/11 05:28:21;;;;;;;8.95;4.18;;;6.90;99.90;;;;;;5030309;28;20600;-76
2022/01/11 05:30:47;;;;;;;6.32;4.03;;;6.80;99.90;;;;;;5028103;28;20033;-76
2022/01/11 05:33:12;;;;;;;7.85;4.45;;;6.80;99.90;;;;;;5031821;28;20032;-76
2022/01/11 05:35:39;;;;;;;8.23;4.22;;;6.80;99.90;;;;;;5029783;28;20025;-76
2022/01/11 05:38:04;;;;;;;8.32;4.50;;;6.70;99.90;;;;;;5029617;28;20513;-76
2022/01/11 05:40:30;;;;;;;5.07;3.92;;;6.70;99.90;;;;;;5028276;28;20053;-76
2022/01/11 05:42:56;;;;;;;6.57;4.00;;;6.80;99.90;;;;;;5029994;28;20036;-76
2022/01/11 05:45:22;;;;;;;7.75;5.03;;;6.80;99.90;;;;;;5031642;28;20499;-76
2022/01/11 05:47:52;;;;;;;6.47;3.58;;;6.80;99.90;;;;;;5029527;28;20079;-76
2022/01/11 05:50:18;;;;;;;7.43;4.13;;;6.80;99.90;;;;;;5024365;28;20052;-76
2022/01/11 05:52:44;;;;;;;6.57;3.83;;;6.80;99.90;;;;;;5027779;28;20030;-76
2022/01/11 05:55:11;;;;;;;6.18;4.38;;;6.80;99.90;;;;;;5017012;28;20029;-76
2022/01/11 05:57:38;;;;;;;6.18;3.55;;;6.80;99.90;;;;;;5029972;28;20029;-76
2022/01/11 06:00:06;;;;;;;6.57;3.50;;;6.80;99.90;;;;;;5031179;28;20033;-76
2022/01/11 06:02:32;;;;;;;6.75;4.22;;;6.70;99.90;;;;;;5029152;28;20029;-76
2022/01/11 06:04:58;;;;;;;6.20;4.13;;;6.60;99.90;;;;;;5028823;28;20516;-76
2022/01/11 06:07:24;;;;;;;7.63;4.18;;;6.40;99.90;;;;;;5029090;28;20063;-76
2022/01/11 06:09:49;;;;;;;5.35;3.78;;;6.50;99.90;;;;;;5029720;28;20554;-76
2022/01/11 06:12:15;;;;;;;6.03;3.97;;;6.50;99.90;;;;;;5029907;28;20021;-76
2022/01/11 06:14:41;;;;;;;7.68;3.92;;;6.40;99.90;;;;;;5028467;28;20507;-76
2022/01/11 06:17:06;;;;;;;7.03;4.78;;;6.40;99.90;;;;;;5027943;28;20029;-76
2022/01/11 06:19:34;;;;;;;7.18;5.00;;;6.30;99.90;;;;;;5017741;28;20025;-76
2022/01/11 06:21:59;;;;;;;9.80;5.78;;;6.20;99.90;;;;;;5022781;28;20037;-76
2022/01/11 06:24:25;;;;;;;9.95;5.28;;;6.10;99.90;;;;;;5029998;28;20021;-76
2022/01/11 06:26:51;;;;;;;11.25;5.88;;;6.10;99.90;;;;;;5027212;28;20065;-76
2022/01/11 06:29:17;;;;;;;9.23;5.60;;;6.10;99.90;;;;;;5028675;28;20502;-76
2022/01/11 06:31:42;;;;;;;7.53;4.65;;;6.10;99.90;;;;;;5029067;28;20025;-76
2022/01/11 06:34:08;;;;;;;8.98;5.40;;;6.00;99.90;;;;;;5029069;28;20025;-76
2022/01/11 06:36:34;;;;;;;10.48;5.72;;;6.10;99.90;;;;;;5027723;28;20490;-76
2022/01/11 06:38:59;;;;;;;8.63;5.15;;;5.90;99.90;;;;;;5029699;28;20445;-76
2022/01/11 06:41:25;;;;;;;9.38;4.82;;;5.70;99.90;;;;;;5027254;28;20030;-76
2022/01/11 06:43:53;;;;;;;7.68;4.72;;;5.60;99.90;;;;;;5028463;28;20483;-76
2022/01/11 06:46:22;;;;;;;7.90;4.93;;;5.60;99.90;;;;;;5029151;28;20026;-76
2022/01/11 06:48:48;;;;;;;9.63;5.85;;;5.50;99.90;;;;;;5025817;28;20029;-76
2022/01/11 06:51:13;;;;;;;9.38;5.90;;;5.60;99.90;;;;;;5028595;28;20598;-75
2022/01/11 06:53:39;;;;;;;11.50;6.38;;;5.70;99.90;;;;;;5028020;28;20021;-76
2022/01/11 06:56:05;;;;;;;13.55;7.22;;;5.60;99.90;;;;;;5028184;28;20514;-76
2022/01/11 06:58:30;;;;;;;14.40;7.10;;;5.60;99.90;;;;;;5028166;28;20021;-76
2022/01/11 07:00:56;;;;;;;13.98;7.82;;;5.50;99.90;;;;;;5027992;28;20056;-76
2022/01/11 07:03:22;;;;;;;11.68;5.93;;;5.50;99.90;;;;;;5029971;28;20021;-76
2022/01/11 07:05:48;;;;;;;9.13;5.57;;;5.60;99.90;;;;;;5027730;28;20029;-76
2022/01/11 07:08:14;;;;;;;14.25;8.25;;;5.60;99.90;;;;;;5026271;28;20029;-76
2022/01/11 07:10:40;;;;;;;16.55;10.45;;;5.60;99.90;;;;;;5028163;28;20025;-77
2022/01/11 07:13:05;;;;;;;18.40;10.23;;;5.50;99.90;;;;;;5026949;28;20450;-77
2022/01/11 07:15:31;;;;;;;17.60;9.23;;;5.50;99.90;;;;;;5027710;28;20104;-78
2022/01/11 07:17:57;;;;;;;16.33;9.65;;;5.40;99.90;;;;;;5028204;28;20037;-77
2022/01/11 07:20:24;;;;;;;15.13;8.60;;;5.40;99.90;;;;;;5025743;28;20030;-78
2022/01/11 07:22:50;;;;;;;12.95;8.60;;;5.40;99.90;;;;;;5020634;28;20159;-77
2022/01/11 07:25:16;;;;;;;11.52;7.90;;;5.50;99.90;;;;;;5028359;28;20104;-77
2022/01/11 07:27:42;;;;;;;10.70;6.28;;;5.40;99.90;;;;;;5027629;28;20033;-88
2022/01/11 07:30:09;;;;;;;10.68;6.88;;;5.40;99.90;;;;;;5017985;28;20605;-82
2022/01/11 07:32:35;;;;;;;10.98;6.00;;;5.50;99.90;;;;;;5027503;28;20506;-91
2022/01/11 07:35:03;;;;;;;9.18;6.43;;;5.60;99.90;;;;;;5027941;28;20032;-80
2022/01/11 07:37:28;;;;;;;8.98;6.47;;;5.40;99.90;;;;;;5027327;28;20033;-89
2022/01/11 07:39:54;;;;;;;8.30;5.50;;;5.40;99.90;;;;;;5024562;28;20049;-84
2022/01/11 07:42:20;;;;;;;8.07;5.45;;;5.40;99.90;;;;;;5033838;28;20040;-83
2022/01/11 07:44:48;;;;;;;9.90;5.53;;;5.20;99.90;;;;;;5028792;28;20025;-85
2022/01/11 07:47:14;;;;;;;7.68;4.85;;;5.20;99.90;;;;;;5026552;28;20025;-89
2022/01/11 07:49:39;;;;;;;7.57;4.78;;;5.30;99.90;;;;;;5029014;28;20033;-82
2022/01/11 07:52:06;;;;;;;7.13;4.63;;;5.40;99.90;;;;;;5028354;28;20029;-80
2022/01/11 07:54:31;;;;;;;6.35;4.43;;;5.40;99.90;;;;;;5030137;28;20029;-79
2022/01/11 07:56:57;;;;;;;9.98;4.32;;;5.40;99.90;;;;;;5025312;28;20763;-80
2022/01/11 07:59:23;;;;;;;8.15;4.30;;;5.30;99.90;;;;;;5024548;28;20427;-80
2022/01/11 08:01:48;;;;;;;6.60;4.35;;;5.40;99.90;;;;;;5028169;28;20029;-81
2022/01/11 08:04:14;;;;;;;9.05;4.45;;;5.50;99.90;;;;;;5026031;28;20021;-83
2022/01/11 08:06:40;;;;;;;10.65;4.80;;;5.50;99.90;;;;;;5029747;28;20036;-88
2022/01/11 08:09:07;;;;;;;7.72;4.50;;;5.30;99.90;;;;;;5032144;28;20104;-90
2022/01/11 08:11:33;;;;;;;8.55;4.95;;;5.20;99.90;;;;;;5029956;28;20033;-84
2022/01/11 08:13:59;;;;;;;9.65;5.15;;;5.30;99.90;;;;;;5028923;28;20026;-81
2022/01/11 08:16:25;;;;;;;11.07;5.40;;;5.40;99.90;;;;;;5028853;28;20503;-78
2022/01/11 08:18:50;;;;;;;8.88;5.95;;;5.40;99.90;;;;;;5029299;28;20044;-80
2022/01/11 08:21:16;;;;;;;8.95;5.60;;;5.50;99.90;;;;;;5030942;28;20040;-80
2022/01/11 08:23:42;;;;;;;12.45;6.13;;;5.50;99.90;;;;;;5025998;28;20045;-78
2022/01/11 08:26:07;;;;;;;8.63;5.80;;;5.70;99.90;;;;;;5023241;28;20107;-87
2022/01/11 08:28:33;;;;;;;8.52;4.72;;;5.70;99.90;;;;;;5028729;28;20021;-86
2022/01/11 08:31:00;;;;;;;10.38;5.68;;;6.30;99.90;;;;;;5025755;28;20025;-83
2022/01/11 08:33:26;;;;;;;8.23;5.75;;;7.10;99.90;;;;;;5031265;28;20025;-85
2022/01/11 08:35:52;;;;;;;11.18;6.25;;;7.60;99.90;;;;;;5027399;28;20057;-92
2022/01/11 08:38:18;;;;;;;10.63;6.55;;;7.00;99.90;;;;;;5030251;28;20053;-88
2022/01/11 08:40:45;;;;;;;10.32;6.72;;;6.40;99.90;;;;;;5028198;28;20080;-93
2022/01/11 08:43:10;;;;;;;8.32;7.20;;;6.50;99.90;;;;;;5026442;28;20117;-90
2022/01/11 08:45:37;;;;;;;8.52;5.80;;;6.30;99.90;;;;;;5031519;28;20168;-90
2022/01/11 08:48:03;;;;;;;10.05;5.97;;;6.30;99.90;;;;;;5031740;28;20406;-93
2022/01/11 08:50:29;;;;;;;7.43;5.38;;;7.00;99.90;;;;;;5029185;28;20026;-91
2022/01/11 08:52:55;;;;;;;11.02;6.10;;;6.70;99.90;;;;;;5032333;28;20552;-88
2022/01/11 08:55:21;;;;;;;10.35;6.97;;;6.20;99.90;;;;;;5030439;28;20038;-86
2022/01/11 08:57:47;;;;;;;9.57;6.82;;;5.90;99.90;;;;;;5029935;28;20528;-87
2022/01/11 09:00:16;;;;;;;10.35;7.22;;;5.90;99.90;;;;;;5031131;28;20525;-89
2022/01/11 09:02:44;;;;;;;10.40;6.20;;;6.20;99.90;;;;;;5029298;28;20026;-88
2022/01/11 09:05:10;;;;;;;9.18;6.38;;;6.90;99.90;;;;;;5026757;28;20029;-88
2022/01/11 09:07:35;;;;;;;12.20;5.97;;;6.70;99.90;;;;;;5026076;28;20507;-85
2022/01/11 09:10:01;;;;;;;9.43;6.00;;;7.90;99.90;;;;;;5030250;28;20033;-88
2022/01/11 09:12:27;;;;;;;7.57;5.22;;;8.30;99.90;;;;;;5027545;28;20507;-85
2022/01/11 09:14:53;;;;;;;7.10;4.65;;;8.00;99.90;;;;;;5025768;28;20581;-89
2022/01/11 09:17:18;;;;;;;8.60;4.82;;;8.00;99.90;;;;;;5028451;28;20124;-86
2022/01/11 09:19:44;;;;;;;6.82;4.72;;;8.00;99.90;;;;;;5028273;28;20036;-88
2022/01/11 09:22:10;;;;;;;9.95;5.65;;;8.60;99.90;;;;;;5030871;28;20528;-89
2022/01/11 09:24:36;;;;;;;10.07;6.22;;;10.90;99.90;;;;;;5030733;28;20030;-90
2022/01/11 09:27:04;;;;;;;7.78;5.47;;;10.60;99.90;;;;;;5030500;28;20503;-89
2022/01/11 09:29:36;;;;;;;6.95;4.50;;;9.50;99.90;;;;;;5030911;28;20536;-91
2022/01/11 09:32:04;;;;;;;7.40;4.30;;;8.10;99.90;;;;;;5029746;28;20026;-88
2022/01/11 09:34:30;;;;;;;7.43;4.97;;;7.70;99.90;;;;;;5031291;28;20033;-92
2022/01/11 09:36:56;;;;;;;8.77;4.93;;;7.40;99.90;;;;;;5028989;28;20021;-89
2022/01/11 09:39:23;;;;;;;7.57;4.47;;;7.20;99.90;;;;;;5030570;28;20053;-86
2022/01/11 09:41:50;;;;;;;9.00;4.47;;;7.10;99.90;;;;;;5029284;28;20052;-94
2022/01/11 09:44:16;;;;;;;9.20;4.07;;;7.00;99.90;;;;;;5026137;28;20037;-84
2022/01/11 09:46:42;;;;;;;6.72;4.10;;;6.90;99.90;;;;;;5030533;28;20092;-94
2022/01/11 09:49:08;;;;;;;7.70;3.72;;;6.80;99.90;;;;;;5028477;28;20499;-89
2022/01/11 09:51:36;;;;;;;8.35;4.30;;;6.80;99.90;;;;;;5029461;28;20071;-89
2022/01/11 09:54:05;;;;;;;9.48;3.80;;;6.90;99.90;;;;;;5029239;28;20026;-93
2022/01/11 09:56:35;;;;;;;7.20;3.53;;;7.00;99.90;;;;;;5028478;28;20498;-89
2022/01/11 09:59:00;;;;;;;5.47;3.88;;;7.10;99.90;;;;;;5026261;28;20029;-89
2022/01/11 10:01:26;;;;;;;6.55;3.60;;;7.10;99.90;;;;;;5028766;28;20032;-90
2022/01/11 10:04:00;;;;;;;5.57;3.53;;;7.10;99.90;;;;;;5029541;28;20087;-88
2022/01/11 10:06:26;;;;;;;5.13;3.38;;;7.20;99.90;;;;;;5031726;28;20035;-89
2022/01/11 10:09:17;;;;;;;8.77;2.83;;;7.20;99.90;;;;;;5029933;28;20533;-87
2022/01/11 10:11:47;;;;;;;;;;;7.20;99.90;;;;;;5024313;28;20049;-91
2022/01/11 10:14:22;;;;;;;5.55;3.78;;;7.30;99.90;;;;;;5025587;28;19909;-94
2022/01/11 10:16:49;;;;;;;8.27;2.83;;;7.40;99.90;;;;;;5024781;28;20071;-87
2022/01/11 10:19:22;;;;;;;5.93;3.20;;;7.40;99.90;;;;;;5025410;28;20061;-82
2022/01/11 10:21:49;;;;;;;4.82;2.95;;;7.60;99.90;;;;;;5026622;28;20124;-87
2022/01/11 10:24:46;;;;;;;6.22;2.97;;;7.40;99.90;;;;;;5028136;28;20029;-84
2022/01/11 10:27:14;;;;;;;5.82;3.25;;;7.40;99.90;;;;;;5021748;28;20566;-87
2022/01/11 10:29:43;;;;;;;8.48;3.08;;;7.50;99.90;;;;;;5024920;28;20040;-85
2022/01/11 10:32:19;;;;;;;3.70;2.70;;;7.50;99.90;;;;;;5027435;28;20108;-88
2022/01/11 10:34:48;;;;;;;6.57;2.88;;;7.50;99.90;;;;;;5027032;28;20033;-85
2022/01/11 10:37:17;;;;;;;4.18;2.95;;;7.50;99.90;;;;;;5025261;28;20033;-92
2022/01/11 10:39:44;;;;;;;4.47;2.85;;;7.70;99.90;;;;;;5024973;28;20342;-90
2022/01/11 10:42:49;;;;;;;5.07;3.38;;;7.80;99.90;;;;;;5027284;28;20033;-87
2022/01/11 10:45:19;;;;;;;5.07;2.40;;;7.70;99.90;;;;;;4988542;28;20132;-92
2022/01/11 10:47:48;;;;;;;4.40;2.38;;;7.70;99.90;;;;;;5005496;28;20550;-87
2022/01/11 10:50:19;;;;;;;3.30;2.65;;;7.70;99.90;;;;;;5002507;28;20029;-84
2022/01/11 10:52:46;;;;;;;3.42;2.22;;;7.90;99.90;;;;;;4987315;28;20033;-88
2022/01/11 10:55:24;;;;;;;3.92;2.40;;;8.00;99.90;;;;;;4985860;28;20038;-89
2022/01/11 10:57:55;;;;;;;2.95;1.80;;;8.00;99.90;;;;;;5003872;28;20160;-90
2022/01/11 11:00:35;;;;;;;2.40;2.10;;;7.90;99.90;;;;;;5006952;28;20113;-90
2022/01/11 11:03:12;;;;;;;4.53;2.42;;;7.80;99.90;;;;;;5003927;28;20033;-93
2022/01/11 11:06:07;;;;;;;5.47;2.50;;;8.00;99.90;;;;;;5002181;28;20034;-89
2022/01/11 11:08:41;;;;;;;3.85;2.47;;;8.00;99.90;;;;;;4986909;28;20038;-91
2022/01/11 11:11:15;;;;;;;5.38;2.42;;;8.00;99.90;;;;;;5005164;28;20097;-87
2022/01/11 11:13:46;;;;;;;2.85;2.10;;;8.10;99.90;;;;;;5000216;28;20121;-87
2022/01/11 11:16:28;;;;;;;3.30;1.98;;;8.00;99.90;;;;;;5003152;28;20132;-87
2022/01/11 11:18:59;;;;;;;4.25;2.20;;;8.00;99.90;;;;;;5004179;28;20061;-89
2022/01/11 11:21:26;;;;;;;4.10;2.22;;;8.00;99.90;;;;;;5023394;28;20069;-88
2022/01/11 11:24:04;;;;;;;3.22;2.03;;;8.10;99.90;;;;;;5022176;28;20083;-93
2022/01/11 11:26:39;;;;;;;3.15;2.40;;;8.20;99.90;;;;;;5021562;28;20087;-91
2022/01/11 11:29:10;;;;;;;3.35;1.80;;;8.10;99.90;;;;;;5024376;28;20021;-86
2022/01/11 11:31:37;;;;;;;4.60;2.05;;;8.00;99.90;;;;;;5022117;28;20053;-86
2022/01/11 11:34:06;;;;;;;4.22;2.15;;;7.90;99.90;;;;;;5025399;28;20068;-85
2022/01/11 11:36:31;;;;;;;3.45;2.33;;;8.00;99.90;;;;;;5025726;28;20060;-90
2022/01/11 11:39:03;;;;;;;3.10;1.85;;;8.00;99.90;;;;;;5026307;28;20097;-92
2022/01/11 11:41:31;;;;;;;4.43;2.75;;;8.10;99.90;;;;;;5036699;28;20030;-93
2022/01/11 11:44:11;;;;;;;3.78;1.83;;;8.40;99.90;;;;;;5029368;28;20033;-93
2022/01/11 11:46:56;;;;;;;4.10;2.60;;;8.10;99.90;;;;;;5025180;28;20025;-87
2022/01/11 11:49:42;;;;;;;5.15;2.53;;;8.10;99.90;;;;;;5021915;28;20037;-86
2022/01/11 11:52:21;;;;;;;4.43;2.33;;;8.00;99.90;;;;;;5026015;28;20036;-84
2022/01/11 11:54:54;;;;;;;2.63;2.22;;;8.00;99.90;;;;;;5024370;28;20089;-84
2022/01/11 11:57:22;;;;;;;2.53;2.25;;;8.00;99.90;;;;;;5024733;28;20105;-84
2022/01/11 12:00:04;;;;;;;2.78;2.10;;;8.00;99.90;;;;;;5026201;28;20108;-83
2022/01/11 12:02:38;;;;;;;5.57;1.88;;;8.30;99.90;;;;;;5022586;28;20073;-83
2022/01/11 12:05:07;;;;;;;4.78;2.10;;;8.10;99.90;;;;;;5024786;28;20324;-82
2022/01/11 12:07:43;;;;;;;3.50;1.83;;;7.90;99.90;;;;;;5021429;28;20018;-83
2022/01/11 12:10:15;;;;;;;3.05;2.10;;;7.90;99.90;;;;;;5023364;28;20025;-93
2022/01/11 12:12:51;;;;;;;3.95;2.53;;;8.00;99.90;;;;;;5025410;28;20025;-89
2022/01/11 12:15:33;;;;;;;2.70;2.10;;;8.20;99.90;;;;;;5029099;28;20044;-90
2022/01/11 12:17:58;;;;;;;3.05;1.63;;;8.30;99.90;;;;;;5026909;28;20029;-89
2022/01/11 12:20:39;;;;;;;3.10;1.85;;;8.20;99.90;;;;;;5027246;28;20091;-89
2022/01/11 12:23:10;;;;;;;2.67;2.08;;;8.20;99.90;;;;;;5024155;28;20052;-89
2022/01/11 12:25:42;;;;;;;2.38;1.83;;;8.00;99.90;;;;;;5031686;28;20037;-89
2022/01/11 12:28:18;;;;;;;4.53;2.63;;;7.80;99.90;;;;;;5029776;28;20030;-89
2022/01/11 12:30:44;;;;;;;2.78;1.70;;;8.00;99.90;;;;;;5031494;28;20224;-86
2022/01/11 12:33:10;;;;;;;3.63;2.00;;;7.90;99.90;;;;;;5028655;28;20041;-90
2022/01/11 12:36:03;;;;;;;2.63;1.65;;;7.90;99.90;;;;;;5026445;28;20029;-84
2022/01/11 12:38:33;;;;;;;4.00;2.00;;;7.80;99.90;;;;;;5032400;28;20033;-86
2022/01/11 12:41:39;;;;;;;3.47;2.28;;;7.80;99.90;;;;;;5028742;28;20045;-90
2022/01/11 12:44:28;;;;;;;4.65;2.25;;;8.10;99.90;;;;;;4963690;28;20356;-85
2022/01/11 12:46:57;;;;;;;3.03;1.70;;;7.90;99.90;;;;;;4984191;28;20046;-91
2022/01/11 12:49:24;;;;;;;5.38;1.85;;;8.30;99.90;;;;;;4988526;28;20050;-86
2022/01/11 12:51:57;;;;;;;2.22;1.88;;;8.30;99.90;;;;;;4988635;28;20046;-84
2022/01/11 12:54:47;;;;;;;3.25;1.60;;;8.10;99.90;;;;;;4989603;28;20030;-88
2022/01/11 12:57:15;;;;;;;4.00;1.98;;;8.10;99.90;;;;;;4991791;28;20034;-92
2022/01/11 12:59:53;;;;;;;3.83;1.48;;;8.00;99.90;;;;;;4986034;28;20059;-91
2022/01/11 13:02:23;;;;;;;1.73;1.50;;;8.40;99.90;;;;;;4970088;28;20065;-91
2022/01/11 13:04:56;;;;;;;2.03;1.50;;;8.30;99.90;;;;;;4972837;28;20042;-83
2022/01/11 13:07:22;;;;;;;3.63;1.95;;;8.20;99.90;;;;;;4981318;28;20034;-83